Ohop, Washington
Current Conditions -  °F | °C
As of 12:58 PM on Wednesday 17 Dec 2014 (Local Time) from KTCM Reporting Station
Overcast Overcast  
Wind Chill: 41°   Ceiling: 500
Heat Index: 45°   Visibility: 10mi
Dew Point: 45°   Wind: 6mph
Humidity: 100%   Direction: 170°S
Pressure: 29.84"   Gusts: NA
Location:  46.993°N, 122.097°W
Report Text: KTCM 172058Z AUTO 17005KT 10SM OVC005 07/07 A2984 RMK AO2 RAE19RAB23E51 OVC V BKN SLP111 P0000 60000 T00700070 50003 $
Loading
Personal Weather Stations






























Interactive Weather Map New forecast layout! Learn more

10-Day Weather Forecast

Advertisements
Track Severe Weather on mobile